Time;durP1;ratioP1;P1;durP2;ratioP2;P2;SDS_P1;SDS_P2;PMS_P1;PMS_P2;Temp;Humidity;BMP_temperature;BMP_pressure;BME280_temperature;BME280_humidity;BME280_pressure;Samples;Min_cycle;Max_cycle;Signal;HPM_P1;HPM_P2
2024/03/09 00:02:14;;;;;;;;;9.00;7.00;;;;;11.55;62.76;101402.66;146621;675;46010;-73
2024/03/09 00:05:21;;;;;;;;;;;;;;;;;;;;;
2024/03/09 00:08:31;;;;;;;;;6.00;6.00;;;;;11.51;63.04;101400.69;146618;593;47020;-71
2024/03/09 00:11:25;;;;;;;;;5.25;5.00;;;;;11.51;62.88;101396.37;146619;592;46013;-73
2024/03/09 00:14:20;;;;;;;;;9.00;8.25;;;;;10.70;62.77;101250.59;146620;619;46029;-71
2024/03/09 00:17:18;;;;;;;;;9.25;8.25;;;;;11.54;63.03;101395.69;146616;577;46014;-71
2024/03/09 00:20:21;;;;;;;;;7.25;7.00;;;;;11.50;63.19;101392.00;146620;584;46010;-70
2024/03/09 00:23:20;;;;;;;;;10.75;9.75;;;;;11.51;63.25;101398.09;146615;574;47016;-70
2024/03/09 00:26:14;;;;;;;;;7.50;6.25;;;;;11.52;63.60;101398.16;146622;596;46010;-71
2024/03/09 00:29:24;;;;;;;;;7.50;7.50;;;;;11.52;63.89;101402.47;146616;571;47028;-72
2024/03/09 00:32:17;;;;;;;;;7.25;7.25;;;;;11.52;63.55;101395.56;146622;589;46010;-71
2024/03/09 00:35:24;;;;;;;;;8.00;6.50;;;;;11.50;63.76;101394.59;146616;612;46016;-71
2024/03/09 00:38:38;;;;;;;;;7.00;7.00;;;;;11.48;63.37;101392.72;146620;595;46020;-70
2024/03/09 00:41:31;;;;;;;;;9.25;7.75;;;;;11.47;63.57;101393.53;146618;573;46016;-71
2024/03/09 00:44:27;;;;;;;;;5.25;5.25;;;;;11.43;64.09;101389.87;146616;585;46020;-72
2024/03/09 00:47:45;;;;;;;;;9.25;7.00;;;;;11.43;63.55;101386.34;146620;678;46012;-70
2024/03/09 00:50:43;;;;;;;;;7.00;5.75;;;;;11.44;63.45;101391.66;146618;698;46021;-74
2024/03/09 00:53:43;;;;;;;;;6.75;6.75;;;;;11.45;63.54;101385.63;146619;677;46016;-75
2024/03/09 00:56:46;;;;;;;;;4.25;4.25;;;;;11.50;63.09;101383.31;146619;564;46012;-71
2024/03/09 00:59:46;;;;;;;;;5.00;5.00;;;;;11.56;63.26;101389.78;146616;622;46016;-72
2024/03/09 01:02:43;;;;;;;;;11.25;6.75;;;;;11.62;63.02;101386.63;146621;691;46021;-73
2024/03/09 01:05:44;;;;;;;;;5.00;5.00;;;;;11.67;62.90;101381.69;146618;579;47017;-72
2024/03/09 01:08:36;;;;;;;;;7.00;6.75;;;;;11.71;62.46;101383.63;146620;594;47010;-71
2024/03/09 01:11:29;;;;;;;;;3.75;3.75;;;;;11.73;62.20;101363.84;146618;595;46016;-70
2024/03/09 01:14:33;;;;;;;;;5.75;5.00;;;;;11.77;62.23;101360.59;146619;642;46010;-70
2024/03/09 01:17:36;;;;;;;;;7.25;6.00;;;;;11.78;61.68;101365.03;146614;567;46017;-69
2024/03/09 01:20:29;;;;;;;;;8.00;7.00;;;;;11.78;61.75;101360.72;146621;694;46012;-69
2024/03/09 01:23:35;;;;;;;;;9.00;7.00;;;;;11.80;61.63;101364.28;146619;578;46012;-68
2024/03/09 01:26:36;;;;;;;;;6.00;6.00;;;;;11.83;61.43;101368.75;146620;617;46010;-66
2024/03/09 01:29:33;;;;;;;;;7.75;6.75;;;;;11.86;61.24;101362.87;146617;578;47012;-66
2024/03/09 01:32:50;;;;;;;;;9.00;6.75;;;;;11.84;61.63;101369.63;146621;631;46043;-70
2024/03/09 01:35:54;;;;;;;;;8.00;6.00;;;;;10.98;61.47;101217.66;146621;614;45018;-70
2024/03/09 01:38:53;;;;;;;;;8.50;6.50;;;;;11.76;62.19;101361.44;146619;599;46020;-70
2024/03/09 01:41:56;;;;;;;;;7.00;6.00;;;;;11.76;61.85;101369.22;146618;679;46014;-69
2024/03/09 01:44:55;;;;;;;;;9.50;7.50;;;;;11.77;62.17;101365.81;146617;639;47010;-71
2024/03/09 01:48:03;;;;;;;;;;;;;;;;;;;;;
2024/03/09 01:50:57;;;;;;;;;9.75;6.75;;;;;11.74;62.21;101363.97;146621;670;46010;-71
2024/03/09 01:53:59;;;;;;;;;5.50;5.00;;;;;11.71;62.62;101366.38;146614;582;47012;-70
2024/03/09 01:56:59;;;;;;;;;10.50;7.25;;;;;11.68;62.78;101357.50;146621;576;46020;-71
2024/03/09 02:00:24;;;;;;;;;6.75;5.25;;;;;9.58;62.24;100984.81;146618;597;46016;-71
2024/03/09 02:03:17;;;;;;;;;5.25;5.25;;;;;11.73;63.07;101354.34;146620;570;47008;-71
2024/03/09 02:06:18;;;;;;;;;5.00;4.00;;;;;11.72;63.39;101354.28;146617;658;46016;-72
2024/03/09 02:09:19;;;;;;;;;5.75;4.25;;;;;11.67;63.73;101338.41;146618;665;47044;-72
2024/03/09 02:12:28;;;;;;;;;6.25;3.75;;;;;11.67;63.33;101338.41;146615;598;47016;-72
2024/03/09 02:15:29;;;;;;;;;5.00;4.00;;;;;11.67;63.77;101337.53;146619;563;47010;-74
2024/03/09 02:18:26;;;;;;;;;4.50;4.50;;;;;11.66;63.74;101328.84;146618;707;46035;-68
2024/03/09 02:21:26;;;;;;;;;9.75;7.75;;;;;11.67;63.41;101325.44;146623;604;46010;-71
2024/03/09 02:24:44;;;;;;;;;6.50;5.50;;;;;11.64;63.78;101325.25;146619;573;46012;-70
2024/03/09 02:27:45;;;;;;;;;6.25;5.00;;;;;11.63;64.35;101317.38;146620;710;46023;-71
2024/03/09 02:30:45;;;;;;;;;5.25;4.00;;;;;11.61;64.27;101326.78;146619;594;46911;-70
2024/03/09 02:33:41;;;;;;;;;6.50;5.25;;;;;11.59;64.32;101321.53;146621;610;46010;-70
2024/03/09 02:36:39;;;;;;;;;4.00;3.50;;;;;11.62;63.98;101328.56;146621;678;46016;-71
2024/03/09 02:39:37;;;;;;;;;4.75;4.75;;;;;11.64;64.47;101326.97;146622;596;46010;-71
2024/03/09 02:43:04;;;;;;;;;4.50;3.75;;;;;11.66;63.93;101334.03;146616;655;46016;-71
2024/03/09 02:45:57;;;;;;;;;6.00;5.00;;;;;11.70;64.05;101337.69;146616;689;46021;-69
2024/03/09 02:49:09;;;;;;;;;3.50;3.50;;;;;11.67;64.25;101333.22;146621;597;46012;-69
2024/03/09 02:52:02;;;;;;;;;5.25;3.50;;;;;11.69;64.23;101331.63;146618;589;47010;-69
2024/03/09 02:55:02;;;;;;;;;6.25;5.00;;;;;11.70;64.00;101330.78;146616;575;46017;-72
2024/03/09 02:58:10;;;;;;;;;3.75;3.75;;;;;11.74;63.96;101324.06;146619;701;47010;-72
2024/03/09 03:01:17;;;;;;;;;3.75;3.75;;;;;11.73;63.67;101341.34;146619;697;46012;-71
2024/03/09 03:04:19;;;;;;;;;4.75;4.00;;;;;11.75;64.01;101339.75;146617;626;47035;-71
2024/03/09 03:07:21;;;;;;;;;1.75;1.75;;;;;11.78;63.68;101346.84;146614;611;46016;-72
2024/03/09 03:10:18;;;;;;;;;3.50;3.00;;;;;11.77;63.27;101332.94;146619;613;47010;-72
2024/03/09 03:13:17;;;;;;;;;4.00;3.75;;;;;11.79;63.49;101340.81;146615;580;47016;-71
2024/03/09 03:16:37;;;;;;;;;5.50;3.00;;;;;11.77;63.88;101340.75;146618;576;46021;-72
2024/03/09 03:19:37;;;;;;;;;5.00;4.00;;;;;11.75;63.58;101344.94;146615;609;47016;-72
2024/03/09 03:22:37;;;;;;;;;4.75;2.75;;;;;11.71;63.91;101350.78;146622;656;46010;-70
2024/03/09 03:25:49;;;;;;;;;5.50;4.75;;;;;11.72;64.10;101359.47;146614;582;48012;-71
2024/03/09 03:29:04;;;;;;;;;10.25;7.50;;;;;11.73;63.87;101356.06;146622;621;46012;-71
2024/03/09 03:32:10;;;;;;;;;10.50;7.50;;;;;11.74;63.95;101355.25;146615;683;46017;-70
2024/03/09 03:35:31;;;;;;;;;4.75;4.00;;;;;11.72;63.42;101354.28;146621;628;47010;-70
2024/03/09 03:38:35;;;;;;;;;7.00;5.00;;;;;11.74;63.92;101363.03;146617;570;46017;-71
2024/03/09 03:41:29;;;;;;;;;8.75;5.50;;;;;11.72;63.75;101356.88;146620;667;46010;-71
2024/03/09 03:44:22;;;;;;;;;6.50;5.25;;;;;11.71;64.17;101360.25;146615;717;46911;-70
2024/03/09 03:47:17;;;;;;;;;5.50;5.25;;;;;11.70;64.12;101367.16;146613;712;46021;-72
2024/03/09 03:50:31;;;;;;;;;5.00;4.00;;;;;11.71;64.12;101373.25;146618;611;46018;-72
2024/03/09 03:53:37;;;;;;;;;5.75;3.50;;;;;11.72;63.92;101362.97;146621;621;46010;-70
2024/03/09 03:56:42;;;;;;;;;6.00;5.00;;;;;11.73;64.00;101369.94;146616;615;46016;-71
2024/03/09 03:59:38;;;;;;;;;5.75;5.50;;;;;11.71;64.07;101374.19;146618;627;47020;-72
2024/03/09 04:02:44;;;;;;;;;7.00;6.00;;;;;11.72;64.16;101370.75;146615;600;47012;-70
2024/03/09 04:05:36;;;;;;;;;4.25;4.00;;;;;11.75;63.87;101381.31;146617;607;46020;-71
2024/03/09 04:08:43;;;;;;;;;5.75;5.00;;;;;11.78;64.09;101378.91;146618;632;47012;-71
2024/03/09 04:11:38;;;;;;;;;5.75;4.00;;;;;11.77;64.10;101374.53;146621;737;47010;-72
2024/03/09 04:14:43;;;;;;;;;5.50;4.00;;;;;11.82;63.93;101379.97;146617;582;47013;-72
2024/03/09 04:17:45;;;;;;;;;5.00;4.75;;;;;11.83;64.01;101379.13;146617;570;46020;-72
2024/03/09 04:20:49;;;;;;;;;4.25;4.00;;;;;11.87;63.88;101386.37;146616;685;46012;-71
2024/03/09 04:23:51;;;;;;;;;5.50;3.25;;;;;11.87;63.91;101385.44;146622;564;47012;-72
2024/03/09 04:26:50;;;;;;;;;4.00;4.00;;;;;11.87;63.98;101381.16;146613;575;47014;-71
2024/03/09 04:29:48;;;;;;;;;5.00;3.25;;;;;11.85;64.04;101380.16;146621;610;46011;-69
2024/03/09 04:32:44;;;;;;;;;7.00;3.75;;;;;11.86;63.94;101375.87;146616;679;47012;-71
2024/03/09 04:35:59;;;;;;;;;;;;;;;;;;;;;
2024/03/09 04:39:09;;;;;;;;;4.25;2.75;;;;;11.82;64.42;101376.47;146618;709;46019;-70
2024/03/09 04:42:07;;;;;;;;;2.00;1.00;;;;;11.84;63.94;101378.34;146620;584;46035;-71
2024/03/09 04:45:06;;;;;;;;;3.50;2.50;;;;;11.87;64.11;101390.63;146616;681;46915;-71
2024/03/09 04:48:04;;;;;;;;;2.00;1.75;;;;;11.91;63.79;101388.31;146617;647;47010;-71
2024/03/09 04:51:01;;;;;;;;;4.00;4.00;;;;;11.95;64.09;101395.47;146619;570;46012;-73
2024/03/09 04:53:58;;;;;;;;;3.50;3.50;;;;;11.98;64.43;101385.25;146621;590;46021;-72
2024/03/09 04:57:00;;;;;;;;;6.50;5.25;;;;;11.97;64.26;101377.38;146616;665;47016;-70
2024/03/09 05:00:02;;;;;;;;;4.00;4.00;;;;;11.97;64.53;101383.47;146620;586;46021;-72
2024/03/09 05:02:56;;;;;;;;;5.50;5.50;;;;;12.01;64.39;101393.22;146618;573;46014;-74
2024/03/09 05:05:51;;;;;;;;;4.50;4.00;;;;;12.05;65.78;101393.37;146621;692;46012;-75
2024/03/09 05:09:07;;;;;;;;;;;;;;;;;;;;;
2024/03/09 05:12:04;;;;;;;;;4.50;4.00;;;;;12.10;66.46;101390.22;146620;724;46020;-71
2024/03/09 05:14:58;;;;;;;;;5.50;5.25;;;;;12.10;67.23;101404.94;146615;658;46014;-71
2024/03/09 05:17:55;;;;;;;;;4.75;4.25;;;;;12.10;67.71;101391.94;146617;630;47010;-70
2024/03/09 05:20:51;;;;;;;;;4.25;3.25;;;;;12.11;66.85;101393.72;146615;608;47016;-72
2024/03/09 05:24:01;;;;;;;;;5.75;5.75;;;;;12.13;66.87;101407.72;146616;558;47021;-71
2024/03/09 05:27:01;;;;;;;;;5.00;5.00;;;;;12.14;67.28;101396.50;146619;574;46012;-71
2024/03/09 05:29:59;;;;;;;;;8.75;6.25;;;;;12.13;67.96;101406.00;146618;702;46023;-69
2024/03/09 05:32:54;;;;;;;;;7.75;6.75;;;;;12.14;67.77;101412.09;146616;615;46016;-71
2024/03/09 05:35:52;;;;;;;;;5.75;5.75;;;;;12.12;68.35;101405.91;146622;585;47010;-71
2024/03/09 05:38:54;;;;;;;;;5.50;5.00;;;;;12.14;67.88;101405.19;146618;593;46017;-71
2024/03/09 05:42:01;;;;;;;;;7.50;5.75;;;;;12.14;67.80;101409.50;146623;599;46010;-70
2024/03/09 05:45:01;;;;;;;;;5.00;3.75;;;;;12.13;67.71;101413.81;146616;581;46017;-71
2024/03/09 05:47:59;;;;;;;;;5.75;5.00;;;;;12.15;69.58;101414.78;146615;641;46020;-71
2024/03/09 05:51:04;;;;;;;;;3.50;3.50;;;;;12.12;66.76;101413.69;146618;642;46032;-70
2024/03/09 05:54:03;;;;;;;;;6.00;6.00;;;;;12.10;68.54;101412.75;146619;593;46020;-72
2024/03/09 05:57:22;;;;;;;;;;;;;;;;;;;;;
2024/03/09 06:00:27;;;;;;;;;14.25;11.00;;;;;12.08;69.49;101422.16;146619;590;47020;-70
2024/03/09 06:03:31;;;;;;;;;5.00;5.00;;;;;12.04;69.15;101410.69;146610;572;47014;-71
2024/03/09 06:06:23;;;;;;;;;6.50;6.50;;;;;12.06;70.62;101429.00;146619;650;46021;-69
2024/03/09 06:09:21;;;;;;;;;8.00;6.75;;;;;12.07;69.93;101435.97;146618;572;46017;-71
2024/03/09 06:12:18;;;;;;;;;10.00;8.75;;;;;12.10;70.16;101436.13;146620;570;47020;-72
2024/03/09 06:15:36;;;;;;;;;9.25;7.00;;;;;12.12;69.22;101431.91;146615;591;46913;-71
2024/03/09 06:18:40;;;;;;;;;9.50;8.50;;;;;12.13;68.61;101436.31;146621;565;46010;-70
2024/03/09 06:21:39;;;;;;;;;8.75;8.75;;;;;12.13;69.81;101447.59;146617;573;48012;-69
2024/03/09 06:24:33;;;;;;;;;8.00;5.50;;;;;12.12;69.21;101439.69;146621;572;46020;-71
2024/03/09 06:27:41;;;;;;;;;9.75;9.50;;;;;12.12;68.66;101447.50;146617;624;47013;-70
2024/03/09 06:30:49;;;;;;;;;7.00;6.00;;;;;12.11;68.88;101435.31;146619;652;46020;-70
2024/03/09 06:33:42;;;;;;;;;9.50;6.50;;;;;12.10;68.23;101447.44;146616;570;47012;-70
2024/03/09 06:36:36;;;;;;;;;7.25;7.25;;;;;12.10;68.71;101444.81;146620;669;47026;-70
2024/03/09 06:39:32;;;;;;;;;9.75;9.00;;;;;12.12;69.56;101455.28;146617;586;46016;-70
2024/03/09 06:42:31;;;;;;;;;11.75;10.50;;;;;12.12;68.97;101456.22;146622;578;46021;-72
2024/03/09 06:45:39;;;;;;;;;11.25;10.25;;;;;12.12;68.53;101460.50;146614;581;46012;-73
2024/03/09 06:48:37;;;;;;;;;12.75;10.50;;;;;12.11;68.70;101459.59;146616;575;46020;-71
2024/03/09 06:51:34;;;;;;;;;11.50;8.50;;;;;12.13;68.52;101467.50;146612;643;47012;-71
2024/03/09 06:54:51;;;;;;;;;10.00;9.00;;;;;12.15;67.91;101465.88;146622;563;46020;-71
2024/03/09 06:57:50;;;;;;;;;13.00;10.50;;;;;12.18;69.07;101468.63;146618;645;46012;-71
2024/03/09 07:00:44;;;;;;;;;8.75;8.25;;;;;12.21;68.54;101472.34;146613;620;46010;-70
2024/03/09 07:03:43;;;;;;;;;10.25;8.50;;;;;12.25;68.14;101471.69;146621;570;46012;-71
2024/03/09 07:06:51;;;;;;;;;10.75;10.25;;;;;12.30;68.35;101481.44;146615;565;47021;-70
2024/03/09 07:09:54;;;;;;;;;10.25;9.00;;;;;12.36;68.62;101474.88;146611;583;46014;-72
2024/03/09 07:13:03;;;;;;;;;9.25;7.50;;;;;10.59;66.99;101164.38;146624;569;46012;-72
2024/03/09 07:16:03;;;;;;;;;14.25;13.00;;;;;12.49;68.29;101471.25;146616;633;46016;-70
2024/03/09 07:19:08;;;;;;;;;9.50;9.50;;;;;12.55;67.42;101476.78;146615;612;46019;-72
2024/03/09 07:22:18;;;;;;;;;14.25;12.25;;;;;12.58;67.09;101476.97;146616;570;46016;-71
2024/03/09 07:25:30;;;;;;;;;13.75;12.50;;;;;12.62;67.15;101470.25;146613;579;46010;-71
2024/03/09 07:28:26;;;;;;;;;13.50;12.75;;;;;12.66;68.14;101464.37;146606;629;46013;-74
2024/03/09 07:31:38;;;;;;;;;13.00;12.25;;;;;12.67;68.02;101464.47;146612;648;46020;-78
2024/03/09 07:34:34;;;;;;;;;14.50;11.25;;;;;12.69;67.58;101461.97;146613;578;46015;-78
2024/03/09 07:37:26;;;;;;;;;18.50;15.50;;;;;12.70;67.72;101467.22;146613;724;47010;-76
2024/03/09 07:40:40;;;;;;;;;14.25;11.25;;;;;12.74;67.80;101472.59;146609;618;47016;-79
2024/03/09 07:43:52;;;;;;;;;12.50;11.00;;;;;10.40;66.91;101058.72;146613;570;46011;-80
2024/03/09 07:47:00;;;;;;;;;17.75;16.00;;;;;12.90;66.95;101483.94;146614;611;47014;-80
2024/03/09 07:49:54;;;;;;;;;13.75;11.75;;;;;12.99;67.11;101491.34;146615;582;47020;-81
2024/03/09 07:53:09;;;;;;;;;11.00;8.50;;;;;13.05;66.20;101498.56;146613;565;46012;-79
2024/03/09 07:56:16;;;;;;;;;13.25;13.25;;;;;13.04;66.74;101483.78;146620;594;46010;-78
2024/03/09 07:59:17;;;;;;;;;14.00;11.00;;;;;13.07;66.99;101490.03;146610;670;46915;-78
2024/03/09 08:02:15;;;;;;;;;11.50;10.75;;;;;13.12;66.67;101479.88;146614;595;47010;-80
2024/03/09 08:05:15;;;;;;;;;9.50;8.75;;;;;13.17;66.71;101484.50;146614;657;46017;-79
2024/03/09 08:08:17;;;;;;;;;14.00;12.75;;;;;13.26;66.81;101491.03;146620;583;46020;-79
2024/03/09 08:11:17;;;;;;;;;8.50;7.50;;;;;13.40;66.17;101490.06;146610;573;46012;-81
2024/03/09 08:14:15;;;;;;;;;9.50;8.50;;;;;13.65;66.24;101487.00;146621;589;46020;-80
2024/03/09 08:17:30;;;;;;;;;9.75;7.00;;;;;13.94;65.17;101479.75;146616;580;47016;-79
2024/03/09 08:20:30;;;;;;;;;6.50;6.50;;;;;14.22;63.59;101476.78;146621;583;47010;-80
2024/03/09 08:23:30;;;;;;;;;8.75;7.75;;;;;14.42;63.17;101480.34;146616;630;46913;-79
2024/03/09 08:26:37;;;;;;;;;9.50;8.75;;;;;14.59;62.96;101482.06;146618;676;46020;-79
2024/03/09 08:29:36;;;;;;;;;7.75;6.75;;;;;14.83;62.00;101476.19;146618;627;46012;-81
2024/03/09 08:32:32;;;;;;;;;8.00;8.00;;;;;15.02;60.77;101478.84;146618;575;46020;-78
2024/03/09 08:35:31;;;;;;;;;9.50;7.75;;;;;15.08;61.40;101476.50;146616;576;47012;-79
2024/03/09 08:38:44;;;;;;;;;10.25;7.00;;;;;15.11;60.75;101481.84;146619;594;47010;-79
2024/03/09 08:41:41;;;;;;;;;1.75;1.25;;;;;15.00;60.50;101473.53;146616;573;46014;-80
2024/03/09 08:44:39;;;;;;;;;6.25;6.00;;;;;14.92;60.69;101472.31;146621;679;46020;-80
2024/03/09 08:47:55;;;;;;;;;8.50;8.50;;;;;14.92;61.12;101464.47;146616;740;47023;-78
2024/03/09 08:51:01;;;;;;;;;8.00;5.00;;;;;14.90;60.91;101468.72;146620;709;46029;-78
2024/03/09 08:54:02;;;;;;;;;8.25;7.00;;;;;15.01;60.97;101463.97;146613;693;46037;-78
2024/03/09 08:57:11;;;;;;;;;8.50;8.00;;;;;15.17;60.38;101470.75;146621;617;46021;-81
2024/03/09 09:00:19;;;;;;;;;7.50;7.50;;;;;13.27;60.34;101123.94;146618;569;46012;-78
2024/03/09 09:03:32;;;;;;;;;7.50;7.25;;;;;15.48;59.30;101467.78;146622;688;45031;-79
2024/03/09 09:06:35;;;;;;;;;6.00;6.00;;;;;15.57;59.35;101465.56;146618;595;46019;-76
2024/03/09 09:09:39;;;;;;;;;11.75;10.00;;;;;15.62;58.33;101466.66;146620;582;46020;-78
2024/03/09 09:12:46;;;;;;;;;10.25;9.00;;;;;15.66;59.84;101459.84;146613;708;46012;-79
2024/03/09 09:16:02;;;;;;;;;7.00;6.75;;;;;13.91;59.26;101123.31;146621;671;46020;-79
2024/03/09 09:19:08;;;;;;;;;7.75;6.00;;;;;15.81;56.89;101455.28;146618;621;46014;-80
2024/03/09 09:22:03;;;;;;;;;6.00;6.00;;;;;15.69;56.16;101468.72;146618;673;47010;-78
2024/03/09 09:25:04;;;;;;;;;10.00;9.00;;;;;15.67;58.63;101465.19;146616;705;46016;-79
2024/03/09 09:28:05;;;;;;;;;8.00;6.00;;;;;15.72;57.07;101464.47;146624;588;45021;-81
2024/03/09 09:31:00;;;;;;;;;7.75;7.25;;;;;15.74;58.54;101463.72;146618;601;47012;-79
2024/03/09 09:34:10;;;;;;;;;7.50;7.50;;;;;15.82;59.23;101462.28;146623;583;46011;-83
2024/03/09 09:37:15;;;;;;;;;6.33;6.33;;;;;15.90;57.87;101462.62;146616;577;46912;-80
2024/03/09 09:40:13;;;;;;;;;9.25;9.00;;;;;15.94;58.28;101457.56;146619;682;46021;-78
2024/03/09 09:43:18;;;;;;;;;9.50;9.50;;;;;16.00;58.99;101467.37;146618;631;46017;-79
2024/03/09 09:46:12;;;;;;;;;5.00;4.00;;;;;16.11;55.62;101465.22;146620;571;46030;-78
2024/03/09 09:49:22;;;;;;;;;2.67;2.67;;;;;16.16;55.64;101458.44;146619;565;46017;-80
2024/03/09 09:52:20;;;;;;;;;6.00;6.00;;;;;16.24;56.34;101456.16;146620;569;46010;-78
2024/03/09 09:55:37;;;;;;;;;6.50;6.50;;;;;16.20;56.38;101455.13;146616;706;46028;-81
2024/03/09 09:58:47;;;;;;;;;5.33;5.33;;;;;16.07;56.26;101445.88;146623;569;46010;-78
2024/03/09 10:01:52;;;;;;;;;7.67;5.67;;;;;15.69;56.46;101392.03;146618;666;46016;-79
2024/03/09 10:05:04;;;;;;;;;10.00;8.25;;;;;15.90;57.27;101442.59;146618;575;47020;-79
2024/03/09 10:08:14;;;;;;;;;10.75;9.75;;;;;15.85;57.67;101444.09;146617;651;46016;-80
2024/03/09 10:11:37;;;;;;;;;6.75;6.75;;;;;13.76;57.78;101081.84;146621;614;46010;-81
2024/03/09 10:14:45;;;;;;;;;6.67;5.33;;;;;15.84;57.87;101434.50;146618;577;47012;-80
2024/03/09 10:17:58;;;;;;;;;5.67;5.67;;;;;15.90;57.14;101439.97;146623;593;46010;-81
2024/03/09 10:21:16;;;;;;;;;7.50;7.50;;;;;16.03;58.73;101435.25;146619;659;46012;-79
2024/03/09 10:24:21;;;;;;;;;7.25;7.00;;;;;16.16;57.06;101424.44;146617;591;46020;-79
2024/03/09 10:27:18;;;;;;;;;8.25;8.25;;;;;16.21;55.42;101425.50;146616;572;47016;-84
2024/03/09 10:30:25;;;;;;;;;8.25;7.50;;;;;16.17;55.94;101424.50;146618;570;46020;-82
2024/03/09 10:33:24;;;;;;;;;7.00;7.00;;;;;16.09;55.19;101428.53;146618;656;46017;-81
2024/03/09 10:36:22;;;;;;;;;4.25;4.25;;;;;15.97;54.87;101419.28;146623;576;47021;-81
2024/03/09 10:39:19;;;;;;;;;5.00;4.75;;;;;15.87;55.23;101428.50;146614;576;47015;-79
2024/03/09 10:42:30;;;;;;;;;7.67;6.67;;;;;15.77;55.99;101423.72;146622;608;46019;-82
2024/03/09 10:45:31;;;;;;;;;6.67;6.67;;;;;15.77;56.27;101424.63;146619;578;46016;-81
2024/03/09 10:48:41;;;;;;;;;7.67;7.33;;;;;15.79;56.94;101424.66;146622;659;46021;-79
2024/03/09 10:52:22;;;;;;;;;4.75;4.00;;;;;15.72;56.81;101418.28;146615;591;46914;-80
2024/03/09 10:55:31;;;;;;;;;7.67;7.67;;;;;15.79;55.46;101420.31;146618;583;46021;-78
2024/03/09 10:58:45;;;;;;;;;5.67;5.00;;;;;15.74;56.09;101419.25;146617;592;47012;-80
2024/03/09 11:01:43;;;;;;;;;5.25;5.00;;;;;15.68;54.29;101408.53;146620;621;46021;-78
2024/03/09 11:04:52;;;;;;;;;9.00;8.50;;;;;15.66;55.18;101405.81;146619;598;46016;-80
2024/03/09 11:07:51;;;;;;;;;3.67;3.00;;;;;15.59;54.44;101406.41;146626;608;46010;-75
2024/03/09 11:10:50;;;;;;;;;8.33;6.67;;;;;15.53;54.54;101400.03;146616;613;47012;-80
2024/03/09 11:13:44;;;;;;;;;5.67;5.00;;;;;15.44;54.49;101397.91;146621;590;47012;-82
2024/03/09 11:16:42;;;;;;;;;7.00;6.00;;;;;15.39;55.05;101399.44;146619;646;46017;-75
2024/03/09 11:19:53;;;;;;;;;7.25;6.00;;;;;15.40;56.21;101402.13;146622;629;46010;-74
2024/03/09 11:22:59;;;;;;;;;23.25;19.00;;;;;15.46;55.55;101394.53;146615;626;46016;-79
2024/03/09 11:25:57;;;;;;;;;25.50;23.75;;;;;15.48;55.42;101394.59;146612;680;46033;-77
2024/03/09 11:29:01;;;;;;;;;8.75;7.75;;;;;15.52;55.80;101393.91;146612;627;46016;-77
2024/03/09 11:32:05;;;;;;;;;14.00;10.00;;;;;15.56;55.95;101395.81;146622;628;46021;-79
2024/03/09 11:35:39;;;;;;;;;6.67;6.00;;;;;15.56;56.18;101393.19;146613;688;46023;-77
2024/03/09 11:38:56;;;;;;;;;6.50;6.00;;;;;15.54;54.88;101397.47;146620;715;46020;-75
2024/03/09 11:42:13;;;;;;;;;13.00;13.00;;;;;15.52;55.89;101393.91;146616;639;46016;-76
2024/03/09 11:45:22;;;;;;;;;9.50;8.50;;;;;15.49;54.67;101388.56;146615;705;47010;-77
2024/03/09 11:48:37;;;;;;;;;6.00;5.00;;;;;15.48;54.73;101387.66;146616;569;46017;-78
2024/03/09 11:51:35;;;;;;;;;5.00;4.67;;;;;15.52;55.71;101393.91;146614;606;47030;-79
2024/03/09 11:54:33;;;;;;;;;5.75;4.75;;;;;15.58;54.98;101390.66;146620;660;46016;-78
2024/03/09 11:57:32;;;;;;;;;7.50;7.50;;;;;15.65;55.08;101387.47;146620;597;46010;-79
2024/03/09 12:00:46;;;;;;;;;7.75;6.75;;;;;15.66;54.40;101387.50;146617;685;47016;-77
2024/03/09 12:03:49;;;;;;;;;9.75;8.00;;;;;15.63;54.89;101386.50;146625;594;46010;-78
2024/03/09 12:06:56;;;;;;;;;;;;;;;;;;;;;
2024/03/09 12:09:54;;;;;;;;;13.25;9.00;;;;;15.56;54.72;101374.03;146621;579;46020;-78
2024/03/09 12:12:58;;;;;;;;;11.25;10.25;;;;;15.54;54.97;101368.72;146621;610;46016;-79
2024/03/09 12:15:58;;;;;;;;;11.25;10.00;;;;;15.47;52.31;101370.19;146616;722;46021;-79
2024/03/09 12:19:06;;;;;;;;;8.50;7.50;;;;;15.36;54.15;101367.97;146614;729;47016;-78
2024/03/09 12:21:59;;;;;;;;;8.25;8.00;;;;;15.29;53.60;101368.53;146612;584;47010;-78
2024/03/09 12:24:57;;;;;;;;;13.50;12.50;;;;;15.20;53.96;101362.09;146617;579;46014;-80
2024/03/09 12:27:57;;;;;;;;;14.25;11.00;;;;;15.22;55.22;101368.25;146613;712;47020;-78
2024/03/09 12:30:58;;;;;;;;;17.25;14.25;;;;;15.23;54.19;101364.84;146611;590;47013;-78
2024/03/09 12:33:51;;;;;;;;;16.00;12.25;;;;;15.20;54.60;101369.00;146606;580;46915;-74
2024/03/09 12:37:04;;;;;;;;;9.00;8.50;;;;;13.17;56.36;101015.78;146610;573;46016;-75
2024/03/09 12:40:21;;;;;;;;;9.50;9.00;;;;;15.15;56.25;101362.72;146618;571;46021;-78
2024/03/09 12:43:28;;;;;;;;;9.25;6.50;;;;;15.07;55.14;101375.44;146613;578;46040;-76
2024/03/09 12:46:28;;;;;;;;;6.00;6.00;;;;;14.97;54.78;101365.44;146622;710;46010;-78
2024/03/09 12:49:37;;;;;;;;;6.00;5.75;;;;;12.73;55.98;100994.66;146617;607;46016;-79
2024/03/09 12:52:39;;;;;;;;;5.25;5.00;;;;;14.78;55.49;101366.34;146618;681;46020;-76
2024/03/09 12:55:45;;;;;;;;;7.00;7.00;;;;;14.77;56.52;101373.28;146618;573;46014;-78
2024/03/09 12:58:45;;;;;;;;;11.00;9.00;;;;;14.82;55.79;101372.59;146617;583;46020;-77
2024/03/09 13:01:38;;;;;;;;;8.00;6.25;;;;;14.83;56.04;101361.31;146616;692;46016;-74
2024/03/09 13:04:50;;;;;;;;;7.50;7.50;;;;;14.91;55.97;101373.00;146620;705;46020;-75
2024/03/09 13:07:51;;;;;;;;;8.50;7.75;;;;;14.89;54.84;101365.09;146616;656;46017;-77
2024/03/09 13:10:59;;;;;;;;;10.00;8.50;;;;;14.81;55.46;101373.41;146620;625;46010;-77
2024/03/09 13:13:54;;;;;;;;;13.75;12.00;;;;;14.70;56.33;101371.22;146614;628;46014;-76
2024/03/09 13:16:49;;;;;;;;;10.25;7.25;;;;;14.60;56.66;101373.34;146611;689;46021;-71
2024/03/09 13:19:47;;;;;;;;;7.75;7.00;;;;;14.57;57.88;101379.31;146617;575;46016;-71
2024/03/09 13:22:43;;;;;;;;;5.25;5.25;;;;;14.58;58.15;101364.53;146620;643;46011;-75
2024/03/09 13:25:49;;;;;;;;;7.50;6.25;;;;;14.57;58.80;101360.16;146618;577;46016;-79
2024/03/09 13:29:03;;;;;;;;;9.25;7.50;;;;;14.54;59.11;101364.41;146616;568;46020;-74
2024/03/09 13:31:58;;;;;;;;;8.50;7.00;;;;;14.48;59.41;101360.59;146617;573;47012;-74
2024/03/09 13:35:08;;;;;;;;;12.50;10.00;;;;;12.42;59.15;101009.69;146620;565;46010;-78
2024/03/09 13:38:18;;;;;;;;;6.00;5.67;;;;;14.37;59.97;101364.44;146610;668;47014;-74
2024/03/09 13:41:14;;;;;;;;;12.50;12.00;;;;;14.28;60.45;101362.28;146619;581;46020;-75
2024/03/09 13:44:09;;;;;;;;;11.00;9.00;;;;;14.25;60.63;101367.38;146611;645;48012;-77
2024/03/09 13:47:18;;;;;;;;;9.00;8.25;;;;;14.19;60.89;101367.97;146619;678;46010;-75
2024/03/09 13:50:28;;;;;;;;;16.25;16.25;;;;;14.16;61.32;101360.00;146616;650;46016;-76
2024/03/09 13:53:24;;;;;;;;;24.50;21.00;;;;;14.19;61.35;101360.16;146608;576;46021;-75
2024/03/09 13:56:28;;;;;;;;;11.25;11.25;;;;;14.23;61.39;101355.97;146610;623;46016;-74
2024/03/09 13:59:25;;;;;;;;;14.75;14.25;;;;;14.31;61.37;101357.22;146604;599;46021;-73
2024/03/09 14:02:25;;;;;;;;;13.00;11.00;;;;;14.38;60.67;101350.56;146610;688;46016;-74
2024/03/09 14:05:46;;;;;;;;;8.00;8.00;;;;;14.48;60.55;101363.19;146614;607;46010;-75
2024/03/09 14:08:42;;;;;;;;;7.50;7.50;;;;;14.45;59.89;101363.06;146616;678;47012;-75
2024/03/09 14:11:38;;;;;;;;;9.50;8.75;;;;;14.44;60.28;101364.78;146623;633;46020;-79
2024/03/09 14:14:32;;;;;;;;;9.25;7.50;;;;;14.45;60.05;101365.66;146616;709;47017;-78
2024/03/09 14:17:37;;;;;;;;;;;;;;;;;;;;;
2024/03/09 14:20:46;;;;;;;;;9.00;9.00;;;;;14.44;59.88;101362.16;146612;568;46018;-74